sensor_id;sensor_type;location;lat;lon;timestamp;temperature;humidity
22212;DHT22;11275;52.488;13.462;2023-08-08T00:00:51;16.40;99.90
22212;DHT22;11275;52.488;13.462;2023-08-08T00:03:17;16.30;99.90
22212;DHT22;11275;52.488;13.462;2023-08-08T00:05:43;16.20;99.90
22212;DHT22;11275;52.488;13.462;2023-08-08T00:08:08;16.30;99.90
22212;DHT22;11275;52.488;13.462;2023-08-08T00:10:34;16.20;99.90
22212;DHT22;11275;52.488;13.462;2023-08-08T00:12:59;16.30;99.90
22212;DHT22;11275;52.488;13.462;2023-08-08T00:15:25;16.30;99.90
22212;DHT22;11275;52.488;13.462;2023-08-08T00:17:50;16.20;99.90
22212;DHT22;11275;52.488;13.462;2023-08-08T00:20:16;16.10;99.90
22212;DHT22;11275;52.488;13.462;2023-08-08T00:22:42;16.10;99.90
22212;DHT22;11275;52.488;13.462;2023-08-08T00:25:07;16.10;99.90
22212;DHT22;11275;52.488;13.462;2023-08-08T00:27:34;16.00;99.90
22212;DHT22;11275;52.488;13.462;2023-08-08T00:30:00;16.00;99.90
22212;DHT22;11275;52.488;13.462;2023-08-08T00:32:26;16.00;99.90
22212;DHT22;11275;52.488;13.462;2023-08-08T00:34:51;15.90;99.90
22212;DHT22;11275;52.488;13.462;2023-08-08T00:37:17;15.90;99.90
22212;DHT22;11275;52.488;13.462;2023-08-08T00:39:42;15.90;99.90
22212;DHT22;11275;52.488;13.462;2023-08-08T00:42:14;15.80;99.90
22212;DHT22;11275;52.488;13.462;2023-08-08T00:44:40;15.80;99.90
22212;DHT22;11275;52.488;13.462;2023-08-08T00:47:07;15.80;99.90
22212;DHT22;11275;52.488;13.462;2023-08-08T00:49:34;15.80;99.90
22212;DHT22;11275;52.488;13.462;2023-08-08T00:52:00;15.90;99.90
22212;DHT22;11275;52.488;13.462;2023-08-08T00:54:26;15.90;99.90
22212;DHT22;11275;52.488;13.462;2023-08-08T00:56:51;15.80;99.90
22212;DHT22;11275;52.488;13.462;2023-08-08T00:59:18;15.70;99.90
22212;DHT22;11275;52.488;13.462;2023-08-08T01:01:44;15.70;99.90
22212;DHT22;11275;52.488;13.462;2023-08-08T01:04:10;15.60;99.90
22212;DHT22;11275;52.488;13.462;2023-08-08T01:06:41;15.60;99.90
22212;DHT22;11275;52.488;13.462;2023-08-08T01:09:24;15.70;99.90
22212;DHT22;11275;52.488;13.462;2023-08-08T01:11:51;15.80;99.90
22212;DHT22;11275;52.488;13.462;2023-08-08T01:14:17;15.60;99.90
22212;DHT22;11275;52.488;13.462;2023-08-08T01:16:44;15.60;99.90
22212;DHT22;11275;52.488;13.462;2023-08-08T01:19:14;15.60;99.90
22212;DHT22;11275;52.488;13.462;2023-08-08T01:21:43;15.50;99.90
22212;DHT22;11275;52.488;13.462;2023-08-08T01:26:40;15.60;99.90
22212;DHT22;11275;52.488;13.462;2023-08-08T01:29:06;15.50;99.90
22212;DHT22;11275;52.488;13.462;2023-08-08T01:31:32;15.50;99.90
22212;DHT22;11275;52.488;13.462;2023-08-08T01:33:57;15.50;99.90
22212;DHT22;11275;52.488;13.462;2023-08-08T01:36:28;15.40;99.90
22212;DHT22;11275;52.488;13.462;2023-08-08T01:38:59;15.40;99.90
22212;DHT22;11275;52.488;13.462;2023-08-08T01:41:31;15.50;99.90
22212;DHT22;11275;52.488;13.462;2023-08-08T01:43:57;15.40;99.90
22212;DHT22;11275;52.488;13.462;2023-08-08T01:46:23;15.40;99.90
22212;DHT22;11275;52.488;13.462;2023-08-08T01:48:50;15.40;99.90
22212;DHT22;11275;52.488;13.462;2023-08-08T01:51:15;15.30;99.90
22212;DHT22;11275;52.488;13.462;2023-08-08T01:53:41;15.30;99.90
22212;DHT22;11275;52.488;13.462;2023-08-08T01:56:07;15.40;99.90
22212;DHT22;11275;52.488;13.462;2023-08-08T01:58:32;15.40;99.90
22212;DHT22;11275;52.488;13.462;2023-08-08T02:00:58;15.30;99.90
22212;DHT22;11275;52.488;13.462;2023-08-08T02:03:23;15.30;99.90
22212;DHT22;11275;52.488;13.462;2023-08-08T02:05:49;15.30;99.90
22212;DHT22;11275;52.488;13.462;2023-08-08T02:08:15;15.40;99.90
22212;DHT22;11275;52.488;13.462;2023-08-08T02:10:40;15.50;99.90
22212;DHT22;11275;52.488;13.462;2023-08-08T02:13:06;15.40;99.90
22212;DHT22;11275;52.488;13.462;2023-08-08T02:15:31;15.40;99.90
22212;DHT22;11275;52.488;13.462;2023-08-08T02:17:59;15.30;99.90
22212;DHT22;11275;52.488;13.462;2023-08-08T02:20:25;15.40;99.90
22212;DHT22;11275;52.488;13.462;2023-08-08T02:22:51;15.40;99.90
22212;DHT22;11275;52.488;13.462;2023-08-08T02:25:16;15.30;99.90
22212;DHT22;11275;52.488;13.462;2023-08-08T02:27:42;15.50;99.90
22212;DHT22;11275;52.488;13.462;2023-08-08T02:30:08;15.40;99.90
22212;DHT22;11275;52.488;13.462;2023-08-08T02:32:33;15.40;99.90
22212;DHT22;11275;52.488;13.462;2023-08-08T02:34:59;15.40;99.90
22212;DHT22;11275;52.488;13.462;2023-08-08T02:37:24;15.30;99.90
22212;DHT22;11275;52.488;13.462;2023-08-08T02:39:50;15.30;99.90
22212;DHT22;11275;52.488;13.462;2023-08-08T02:42:16;15.30;99.90
22212;DHT22;11275;52.488;13.462;2023-08-08T02:44:41;15.30;99.90
22212;DHT22;11275;52.488;13.462;2023-08-08T02:47:07;15.30;99.90
22212;DHT22;11275;52.488;13.462;2023-08-08T02:49:32;15.20;99.90
22212;DHT22;11275;52.488;13.462;2023-08-08T02:51:59;15.20;99.90
22212;DHT22;11275;52.488;13.462;2023-08-08T02:54:25;15.10;99.90
22212;DHT22;11275;52.488;13.462;2023-08-08T02:56:50;15.20;99.90
22212;DHT22;11275;52.488;13.462;2023-08-08T02:59:16;15.10;99.90
22212;DHT22;11275;52.488;13.462;2023-08-08T03:01:42;15.10;99.90
22212;DHT22;11275;52.488;13.462;2023-08-08T03:04:08;15.10;99.90
22212;DHT22;11275;52.488;13.462;2023-08-08T03:06:33;15.10;99.90
22212;DHT22;11275;52.488;13.462;2023-08-08T03:08:59;15.10;99.90
22212;DHT22;11275;52.488;13.462;2023-08-08T03:11:24;15.10;99.90
22212;DHT22;11275;52.488;13.462;2023-08-08T03:13:50;15.10;99.90
22212;DHT22;11275;52.488;13.462;2023-08-08T03:16:16;15.00;99.90
22212;DHT22;11275;52.488;13.462;2023-08-08T03:18:41;15.00;99.90
22212;DHT22;11275;52.488;13.462;2023-08-08T03:21:07;15.00;99.90
22212;DHT22;11275;52.488;13.462;2023-08-08T03:23:32;15.00;99.90
22212;DHT22;11275;52.488;13.462;2023-08-08T03:25:58;15.00;99.90
22212;DHT22;11275;52.488;13.462;2023-08-08T03:28:24;15.00;99.90
22212;DHT22;11275;52.488;13.462;2023-08-08T03:30:50;15.00;99.90
22212;DHT22;11275;52.488;13.462;2023-08-08T03:33:15;15.00;99.90
22212;DHT22;11275;52.488;13.462;2023-08-08T03:35:41;15.10;99.90
22212;DHT22;11275;52.488;13.462;2023-08-08T03:38:08;15.00;99.90
22212;DHT22;11275;52.488;13.462;2023-08-08T03:40:34;15.00;99.90
22212;DHT22;11275;52.488;13.462;2023-08-08T03:43:00;14.90;99.90
22212;DHT22;11275;52.488;13.462;2023-08-08T03:45:25;15.00;99.90
22212;DHT22;11275;52.488;13.462;2023-08-08T03:47:51;14.90;99.90
22212;DHT22;11275;52.488;13.462;2023-08-08T03:50:16;14.90;99.90
22212;DHT22;11275;52.488;13.462;2023-08-08T03:52:42;14.90;99.90
22212;DHT22;11275;52.488;13.462;2023-08-08T03:55:08;15.00;99.90
22212;DHT22;11275;52.488;13.462;2023-08-08T03:57:33;15.00;99.90
22212;DHT22;11275;52.488;13.462;2023-08-08T03:59:59;15.00;99.90
22212;DHT22;11275;52.488;13.462;2023-08-08T04:02:25;15.10;99.90
22212;DHT22;11275;52.488;13.462;2023-08-08T04:04:51;15.10;99.90
22212;DHT22;11275;52.488;13.462;2023-08-08T04:07:16;15.10;99.90
22212;DHT22;11275;52.488;13.462;2023-08-08T04:09:42;15.10;99.90
22212;DHT22;11275;52.488;13.462;2023-08-08T04:12:08;15.20;99.90
22212;DHT22;11275;52.488;13.462;2023-08-08T04:14:34;15.20;99.90
22212;DHT22;11275;52.488;13.462;2023-08-08T04:16:59;15.20;99.90
22212;DHT22;11275;52.488;13.462;2023-08-08T04:19:25;15.30;99.90
22212;DHT22;11275;52.488;13.462;2023-08-08T04:21:51;15.30;99.90
22212;DHT22;11275;52.488;13.462;2023-08-08T04:24:16;15.30;99.90
22212;DHT22;11275;52.488;13.462;2023-08-08T04:26:42;15.30;99.90
22212;DHT22;11275;52.488;13.462;2023-08-08T04:29:08;15.30;99.90
22212;DHT22;11275;52.488;13.462;2023-08-08T04:31:33;15.20;99.90
22212;DHT22;11275;52.488;13.462;2023-08-08T04:34:00;15.20;99.90
22212;DHT22;11275;52.488;13.462;2023-08-08T04:36:27;15.20;99.90
22212;DHT22;11275;52.488;13.462;2023-08-08T04:38:53;15.20;99.90
22212;DHT22;11275;52.488;13.462;2023-08-08T04:41:19;15.10;99.90
22212;DHT22;11275;52.488;13.462;2023-08-08T04:43:45;15.20;99.90
22212;DHT22;11275;52.488;13.462;2023-08-08T04:46:10;15.10;99.90
22212;DHT22;11275;52.488;13.462;2023-08-08T04:48:37;15.20;99.90
22212;DHT22;11275;52.488;13.462;2023-08-08T04:51:05;15.20;99.90
22212;DHT22;11275;52.488;13.462;2023-08-08T04:53:30;15.10;99.90
22212;DHT22;11275;52.488;13.462;2023-08-08T04:55:56;15.30;99.90
22212;DHT22;11275;52.488;13.462;2023-08-08T04:58:22;15.30;99.90
22212;DHT22;11275;52.488;13.462;2023-08-08T05:00:47;15.30;99.90
22212;DHT22;11275;52.488;13.462;2023-08-08T05:03:13;15.30;99.90
22212;DHT22;11275;52.488;13.462;2023-08-08T05:05:39;15.30;99.90
22212;DHT22;11275;52.488;13.462;2023-08-08T05:08:04;15.30;99.90
22212;DHT22;11275;52.488;13.462;2023-08-08T05:10:30;15.30;99.90
22212;DHT22;11275;52.488;13.462;2023-08-08T05:12:57;15.30;99.90
22212;DHT22;11275;52.488;13.462;2023-08-08T05:15:22;15.30;99.90
22212;DHT22;11275;52.488;13.462;2023-08-08T05:17:48;15.40;99.90
22212;DHT22;11275;52.488;13.462;2023-08-08T05:20:14;15.30;99.90
22212;DHT22;11275;52.488;13.462;2023-08-08T05:22:39;15.40;99.90
22212;DHT22;11275;52.488;13.462;2023-08-08T05:25:05;15.30;99.90
22212;DHT22;11275;52.488;13.462;2023-08-08T05:27:31;15.30;99.90
22212;DHT22;11275;52.488;13.462;2023-08-08T05:29:57;15.30;99.90
22212;DHT22;11275;52.488;13.462;2023-08-08T05:32:22;15.20;99.90
22212;DHT22;11275;52.488;13.462;2023-08-08T05:34:50;15.20;99.90
22212;DHT22;11275;52.488;13.462;2023-08-08T05:37:16;15.20;99.90
22212;DHT22;11275;52.488;13.462;2023-08-08T05:39:42;15.30;99.90
22212;DHT22;11275;52.488;13.462;2023-08-08T05:42:07;15.40;99.90
22212;DHT22;11275;52.488;13.462;2023-08-08T05:44:33;15.50;99.90
22212;DHT22;11275;52.488;13.462;2023-08-08T05:46:58;15.70;99.90
22212;DHT22;11275;52.488;13.462;2023-08-08T05:49:24;15.90;99.90
22212;DHT22;11275;52.488;13.462;2023-08-08T05:51:50;16.00;99.90
22212;DHT22;11275;52.488;13.462;2023-08-08T05:54:15;16.20;99.90
22212;DHT22;11275;52.488;13.462;2023-08-08T05:56:41;16.20;99.90
22212;DHT22;11275;52.488;13.462;2023-08-08T05:59:06;16.20;99.90
22212;DHT22;11275;52.488;13.462;2023-08-08T06:01:32;16.20;99.90
22212;DHT22;11275;52.488;13.462;2023-08-08T06:03:59;16.20;99.90
22212;DHT22;11275;52.488;13.462;2023-08-08T06:06:26;16.20;99.90
22212;DHT22;11275;52.488;13.462;2023-08-08T06:08:51;16.20;99.90
22212;DHT22;11275;52.488;13.462;2023-08-08T06:11:17;16.30;99.90
22212;DHT22;11275;52.488;13.462;2023-08-08T06:13:43;16.30;99.90
22212;DHT22;11275;52.488;13.462;2023-08-08T06:16:08;16.30;99.90
22212;DHT22;11275;52.488;13.462;2023-08-08T06:18:35;16.30;99.90
22212;DHT22;11275;52.488;13.462;2023-08-08T06:21:01;16.30;99.90
22212;DHT22;11275;52.488;13.462;2023-08-08T06:23:27;16.30;99.90
22212;DHT22;11275;52.488;13.462;2023-08-08T06:25:53;16.30;99.90
22212;DHT22;11275;52.488;13.462;2023-08-08T06:28:19;16.30;99.90
22212;DHT22;11275;52.488;13.462;2023-08-08T06:30:44;16.40;99.90
22212;DHT22;11275;52.488;13.462;2023-08-08T06:33:10;16.60;99.90
22212;DHT22;11275;52.488;13.462;2023-08-08T06:35:36;16.70;99.90
22212;DHT22;11275;52.488;13.462;2023-08-08T06:38:02;16.80;99.90
22212;DHT22;11275;52.488;13.462;2023-08-08T06:40:28;16.80;99.90
22212;DHT22;11275;52.488;13.462;2023-08-08T06:42:54;16.90;99.90
22212;DHT22;11275;52.488;13.462;2023-08-08T06:45:20;16.80;99.90
22212;DHT22;11275;52.488;13.462;2023-08-08T06:47:46;16.80;99.90
22212;DHT22;11275;52.488;13.462;2023-08-08T06:50:12;16.70;99.90
22212;DHT22;11275;52.488;13.462;2023-08-08T06:52:37;16.80;99.90
22212;DHT22;11275;52.488;13.462;2023-08-08T06:55:04;16.90;99.90
22212;DHT22;11275;52.488;13.462;2023-08-08T06:57:33;16.90;99.90
22212;DHT22;11275;52.488;13.462;2023-08-08T06:59:59;16.80;99.90
22212;DHT22;11275;52.488;13.462;2023-08-08T07:02:25;16.80;99.90
22212;DHT22;11275;52.488;13.462;2023-08-08T07:04:50;16.90;99.90
22212;DHT22;11275;52.488;13.462;2023-08-08T07:07:17;16.90;99.90
22212;DHT22;11275;52.488;13.462;2023-08-08T07:09:42;16.90;99.90
22212;DHT22;11275;52.488;13.462;2023-08-08T07:12:08;17.00;99.90
22212;DHT22;11275;52.488;13.462;2023-08-08T07:14:34;17.00;99.90
22212;DHT22;11275;52.488;13.462;2023-08-08T07:17:00;17.00;99.90
22212;DHT22;11275;52.488;13.462;2023-08-08T07:19:27;17.20;99.90
22212;DHT22;11275;52.488;13.462;2023-08-08T07:21:53;17.20;99.90
22212;DHT22;11275;52.488;13.462;2023-08-08T07:24:19;17.30;99.90
22212;DHT22;11275;52.488;13.462;2023-08-08T07:26:45;17.50;99.90
22212;DHT22;11275;52.488;13.462;2023-08-08T07:29:11;17.60;99.90
22212;DHT22;11275;52.488;13.462;2023-08-08T07:31:36;17.70;99.90
22212;DHT22;11275;52.488;13.462;2023-08-08T07:34:02;17.70;99.90
22212;DHT22;11275;52.488;13.462;2023-08-08T07:36:28;17.80;99.90
22212;DHT22;11275;52.488;13.462;2023-08-08T07:38:53;17.80;99.90
22212;DHT22;11275;52.488;13.462;2023-08-08T07:41:25;17.80;99.90
22212;DHT22;11275;52.488;13.462;2023-08-08T07:43:51;17.70;99.90
22212;DHT22;11275;52.488;13.462;2023-08-08T07:46:17;17.70;99.90
22212;DHT22;11275;52.488;13.462;2023-08-08T07:48:43;17.80;99.90
22212;DHT22;11275;52.488;13.462;2023-08-08T07:51:08;17.80;99.90
22212;DHT22;11275;52.488;13.462;2023-08-08T07:53:34;17.90;99.90
22212;DHT22;11275;52.488;13.462;2023-08-08T07:56:00;17.90;99.90
22212;DHT22;11275;52.488;13.462;2023-08-08T07:58:25;18.00;99.90
22212;DHT22;11275;52.488;13.462;2023-08-08T08:00:52;18.00;99.90
22212;DHT22;11275;52.488;13.462;2023-08-08T08:03:19;18.00;99.90
22212;DHT22;11275;52.488;13.462;2023-08-08T08:05:45;17.90;99.90
22212;DHT22;11275;52.488;13.462;2023-08-08T08:08:10;17.90;99.90
22212;DHT22;11275;52.488;13.462;2023-08-08T08:10:36;17.80;99.90
22212;DHT22;11275;52.488;13.462;2023-08-08T08:13:01;17.80;99.90
22212;DHT22;11275;52.488;13.462;2023-08-08T08:15:27;17.90;99.90
22212;DHT22;11275;52.488;13.462;2023-08-08T08:17:53;17.80;99.90
22212;DHT22;11275;52.488;13.462;2023-08-08T08:20:20;17.80;99.90
22212;DHT22;11275;52.488;13.462;2023-08-08T08:22:45;17.90;99.90
22212;DHT22;11275;52.488;13.462;2023-08-08T08:25:11;18.10;99.90
22212;DHT22;11275;52.488;13.462;2023-08-08T08:27:37;18.10;99.90
22212;DHT22;11275;52.488;13.462;2023-08-08T08:30:07;18.30;99.90
22212;DHT22;11275;52.488;13.462;2023-08-08T08:32:35;18.40;99.90
22212;DHT22;11275;52.488;13.462;2023-08-08T08:35:02;18.50;99.90
22212;DHT22;11275;52.488;13.462;2023-08-08T08:37:32;18.60;99.90
22212;DHT22;11275;52.488;13.462;2023-08-08T08:39:58;18.60;99.90
22212;DHT22;11275;52.488;13.462;2023-08-08T08:42:24;18.70;99.90
22212;DHT22;11275;52.488;13.462;2023-08-08T08:44:51;18.80;99.90
22212;DHT22;11275;52.488;13.462;2023-08-08T08:47:20;18.80;99.90
22212;DHT22;11275;52.488;13.462;2023-08-08T08:49:45;18.90;99.90
22212;DHT22;11275;52.488;13.462;2023-08-08T08:52:11;18.80;99.90
22212;DHT22;11275;52.488;13.462;2023-08-08T08:54:38;18.80;99.90
22212;DHT22;11275;52.488;13.462;2023-08-08T08:57:04;18.80;99.90
22212;DHT22;11275;52.488;13.462;2023-08-08T08:59:29;18.80;99.90
22212;DHT22;11275;52.488;13.462;2023-08-08T09:01:56;18.80;99.90
22212;DHT22;11275;52.488;13.462;2023-08-08T09:04:23;18.70;99.90
22212;DHT22;11275;52.488;13.462;2023-08-08T09:06:50;18.70;99.90
22212;DHT22;11275;52.488;13.462;2023-08-08T09:09:16;18.70;99.90
22212;DHT22;11275;52.488;13.462;2023-08-08T09:11:44;18.70;99.90
22212;DHT22;11275;52.488;13.462;2023-08-08T09:14:21;18.70;99.90
22212;DHT22;11275;52.488;13.462;2023-08-08T09:16:48;18.70;99.90
22212;DHT22;11275;52.488;13.462;2023-08-08T09:19:15;18.90;99.90
22212;DHT22;11275;52.488;13.462;2023-08-08T09:21:43;19.00;99.90
22212;DHT22;11275;52.488;13.462;2023-08-08T09:24:09;18.90;99.90
22212;DHT22;11275;52.488;13.462;2023-08-08T09:26:35;18.90;99.90
22212;DHT22;11275;52.488;13.462;2023-08-08T09:29:04;19.10;99.90
22212;DHT22;11275;52.488;13.462;2023-08-08T09:31:30;19.20;99.90
22212;DHT22;11275;52.488;13.462;2023-08-08T09:34:01;19.30;99.90
22212;DHT22;11275;52.488;13.462;2023-08-08T09:36:28;19.40;99.90
22212;DHT22;11275;52.488;13.462;2023-08-08T09:38:54;19.50;99.90
22212;DHT22;11275;52.488;13.462;2023-08-08T09:41:21;19.50;99.90
22212;DHT22;11275;52.488;13.462;2023-08-08T09:43:51;19.70;99.90
22212;DHT22;11275;52.488;13.462;2023-08-08T09:46:19;19.70;99.90
22212;DHT22;11275;52.488;13.462;2023-08-08T09:48:46;19.70;99.90
22212;DHT22;11275;52.488;13.462;2023-08-08T09:51:12;19.70;99.90
22212;DHT22;11275;52.488;13.462;2023-08-08T09:53:38;19.70;99.90
22212;DHT22;11275;52.488;13.462;2023-08-08T09:56:05;19.60;99.90
22212;DHT22;11275;52.488;13.462;2023-08-08T09:58:32;19.60;99.90
22212;DHT22;11275;52.488;13.462;2023-08-08T10:00:57;19.70;99.90
22212;DHT22;11275;52.488;13.462;2023-08-08T10:03:24;19.70;99.90
22212;DHT22;11275;52.488;13.462;2023-08-08T10:05:50;19.70;99.90
22212;DHT22;11275;52.488;13.462;2023-08-08T10:08:16;19.60;99.90
22212;DHT22;11275;52.488;13.462;2023-08-08T10:10:47;19.50;99.90
22212;DHT22;11275;52.488;13.462;2023-08-08T10:13:25;19.40;99.90
22212;DHT22;11275;52.488;13.462;2023-08-08T10:15:52;19.30;99.90
22212;DHT22;11275;52.488;13.462;2023-08-08T10:18:18;19.50;99.90
22212;DHT22;11275;52.488;13.462;2023-08-08T10:20:47;19.50;99.90
22212;DHT22;11275;52.488;13.462;2023-08-08T10:23:18;19.50;99.90
22212;DHT22;11275;52.488;13.462;2023-08-08T10:25:44;19.60;99.90
22212;DHT22;11275;52.488;13.462;2023-08-08T10:28:11;19.50;99.90
22212;DHT22;11275;52.488;13.462;2023-08-08T10:30:52;19.50;99.90
22212;DHT22;11275;52.488;13.462;2023-08-08T10:33:24;19.60;99.90
22212;DHT22;11275;52.488;13.462;2023-08-08T10:36:03;19.50;99.90
22212;DHT22;11275;52.488;13.462;2023-08-08T10:38:46;19.50;99.90
22212;DHT22;11275;52.488;13.462;2023-08-08T10:41:26;19.50;99.90
22212;DHT22;11275;52.488;13.462;2023-08-08T10:43:58;19.50;99.90
22212;DHT22;11275;52.488;13.462;2023-08-08T10:46:31;19.70;99.90
22212;DHT22;11275;52.488;13.462;2023-08-08T10:49:01;19.80;99.90
22212;DHT22;11275;52.488;13.462;2023-08-08T10:54:07;19.90;99.90
22212;DHT22;11275;52.488;13.462;2023-08-08T10:56:35;20.00;99.90
22212;DHT22;11275;52.488;13.462;2023-08-08T10:59:15;20.00;99.90
22212;DHT22;11275;52.488;13.462;2023-08-08T11:01:44;19.90;99.90
22212;DHT22;11275;52.488;13.462;2023-08-08T11:04:11;19.90;99.90
22212;DHT22;11275;52.488;13.462;2023-08-08T11:06:37;19.90;99.90
22212;DHT22;11275;52.488;13.462;2023-08-08T11:09:06;19.90;99.90
22212;DHT22;11275;52.488;13.462;2023-08-08T11:11:39;19.80;99.90
22212;DHT22;11275;52.488;13.462;2023-08-08T11:14:24;19.70;99.90
22212;DHT22;11275;52.488;13.462;2023-08-08T11:16:51;19.60;99.90
22212;DHT22;11275;52.488;13.462;2023-08-08T11:19:17;19.70;99.90
22212;DHT22;11275;52.488;13.462;2023-08-08T11:21:45;19.70;99.90
22212;DHT22;11275;52.488;13.462;2023-08-08T11:24:12;19.80;99.90
22212;DHT22;11275;52.488;13.462;2023-08-08T11:26:40;19.80;99.90
22212;DHT22;11275;52.488;13.462;2023-08-08T11:29:06;19.80;99.90
22212;DHT22;11275;52.488;13.462;2023-08-08T11:31:34;19.80;99.90
22212;DHT22;11275;52.488;13.462;2023-08-08T11:34:00;19.90;99.90
22212;DHT22;11275;52.488;13.462;2023-08-08T11:36:29;19.90;99.90
22212;DHT22;11275;52.488;13.462;2023-08-08T11:38:57;19.80;99.90
22212;DHT22;11275;52.488;13.462;2023-08-08T11:41:23;19.70;99.90
22212;DHT22;11275;52.488;13.462;2023-08-08T11:43:50;19.70;99.90
22212;DHT22;11275;52.488;13.462;2023-08-08T11:46:17;19.70;99.90
22212;DHT22;11275;52.488;13.462;2023-08-08T11:48:43;19.70;99.90
22212;DHT22;11275;52.488;13.462;2023-08-08T11:51:13;19.60;99.90
22212;DHT22;11275;52.488;13.462;2023-08-08T11:53:48;19.60;99.90
22212;DHT22;11275;52.488;13.462;2023-08-08T11:56:15;19.50;99.90
22212;DHT22;11275;52.488;13.462;2023-08-08T11:58:41;19.50;99.90
22212;DHT22;11275;52.488;13.462;2023-08-08T12:01:06;19.60;99.90
22212;DHT22;11275;52.488;13.462;2023-08-08T12:03:35;19.60;99.90
22212;DHT22;11275;52.488;13.462;2023-08-08T12:06:11;19.80;99.90
22212;DHT22;11275;52.488;13.462;2023-08-08T12:08:38;19.80;99.90
22212;DHT22;11275;52.488;13.462;2023-08-08T12:11:03;19.70;99.90
22212;DHT22;11275;52.488;13.462;2023-08-08T12:13:31;19.70;99.90
22212;DHT22;11275;52.488;13.462;2023-08-08T12:15:58;19.70;99.90
22212;DHT22;11275;52.488;13.462;2023-08-08T12:18:24;19.60;99.90
22212;DHT22;11275;52.488;13.462;2023-08-08T12:20:50;19.60;99.90
22212;DHT22;11275;52.488;13.462;2023-08-08T12:23:15;19.60;99.90
22212;DHT22;11275;52.488;13.462;2023-08-08T12:25:42;19.60;99.90
22212;DHT22;11275;52.488;13.462;2023-08-08T12:28:08;19.60;99.90
22212;DHT22;11275;52.488;13.462;2023-08-08T12:30:34;19.70;99.90
22212;DHT22;11275;52.488;13.462;2023-08-08T12:33:00;19.70;99.90
22212;DHT22;11275;52.488;13.462;2023-08-08T12:35:26;19.80;99.90
22212;DHT22;11275;52.488;13.462;2023-08-08T12:37:53;19.80;99.90
22212;DHT22;11275;52.488;13.462;2023-08-08T12:40:18;20.00;99.90
22212;DHT22;11275;52.488;13.462;2023-08-08T12:42:44;20.00;99.90
22212;DHT22;11275;52.488;13.462;2023-08-08T12:45:10;19.90;99.90
22212;DHT22;11275;52.488;13.462;2023-08-08T12:47:38;20.00;99.90
22212;DHT22;11275;52.488;13.462;2023-08-08T12:50:07;20.00;99.90
22212;DHT22;11275;52.488;13.462;2023-08-08T12:52:33;20.10;99.90
22212;DHT22;11275;52.488;13.462;2023-08-08T12:54:59;20.10;99.90
22212;DHT22;11275;52.488;13.462;2023-08-08T12:57:25;20.00;99.90
22212;DHT22;11275;52.488;13.462;2023-08-08T12:59:54;20.10;99.90
22212;DHT22;11275;52.488;13.462;2023-08-08T13:02:20;20.20;99.90
22212;DHT22;11275;52.488;13.462;2023-08-08T13:04:45;20.30;99.90
22212;DHT22;11275;52.488;13.462;2023-08-08T13:07:12;20.20;99.90
22212;DHT22;11275;52.488;13.462;2023-08-08T13:09:37;20.30;99.90
22212;DHT22;11275;52.488;13.462;2023-08-08T13:12:04;20.30;99.90
22212;DHT22;11275;52.488;13.462;2023-08-08T13:14:30;20.30;99.90
22212;DHT22;11275;52.488;13.462;2023-08-08T13:16:56;20.30;99.90
22212;DHT22;11275;52.488;13.462;2023-08-08T13:19:21;20.10;99.90
22212;DHT22;11275;52.488;13.462;2023-08-08T13:21:51;20.10;99.90
22212;DHT22;11275;52.488;13.462;2023-08-08T13:24:28;20.20;99.90
22212;DHT22;11275;52.488;13.462;2023-08-08T13:26:54;20.30;99.90
22212;DHT22;11275;52.488;13.462;2023-08-08T13:29:22;20.30;99.90
22212;DHT22;11275;52.488;13.462;2023-08-08T13:31:48;20.30;99.90
22212;DHT22;11275;52.488;13.462;2023-08-08T13:34:19;20.30;99.90
22212;DHT22;11275;52.488;13.462;2023-08-08T13:36:52;20.20;99.90
22212;DHT22;11275;52.488;13.462;2023-08-08T13:39:29;20.30;99.90
22212;DHT22;11275;52.488;13.462;2023-08-08T13:41:55;20.40;99.90
22212;DHT22;11275;52.488;13.462;2023-08-08T13:44:21;20.40;99.90
22212;DHT22;11275;52.488;13.462;2023-08-08T13:46:46;20.40;99.90
22212;DHT22;11275;52.488;13.462;2023-08-08T13:49:12;20.20;99.90
22212;DHT22;11275;52.488;13.462;2023-08-08T13:51:38;19.70;99.90
22212;DHT22;11275;52.488;13.462;2023-08-08T13:54:03;19.20;99.90
22212;DHT22;11275;52.488;13.462;2023-08-08T13:56:29;18.80;99.90
22212;DHT22;11275;52.488;13.462;2023-08-08T13:58:55;18.70;99.90
22212;DHT22;11275;52.488;13.462;2023-08-08T14:01:20;18.60;99.90
22212;DHT22;11275;52.488;13.462;2023-08-08T14:03:47;18.70;99.90
22212;DHT22;11275;52.488;13.462;2023-08-08T14:06:12;18.90;99.90
22212;DHT22;11275;52.488;13.462;2023-08-08T14:08:38;18.90;99.90
22212;DHT22;11275;52.488;13.462;2023-08-08T14:11:04;19.00;99.90
22212;DHT22;11275;52.488;13.462;2023-08-08T14:13:29;19.10;99.90
22212;DHT22;11275;52.488;13.462;2023-08-08T14:15:55;19.20;99.90
22212;DHT22;11275;52.488;13.462;2023-08-08T14:18:21;19.30;99.90
22212;DHT22;11275;52.488;13.462;2023-08-08T14:20:47;19.30;99.90
22212;DHT22;11275;52.488;13.462;2023-08-08T14:23:12;19.40;99.90
22212;DHT22;11275;52.488;13.462;2023-08-08T14:25:38;19.30;99.90
22212;DHT22;11275;52.488;13.462;2023-08-08T14:28:04;19.40;99.90
22212;DHT22;11275;52.488;13.462;2023-08-08T14:30:30;19.50;99.90
22212;DHT22;11275;52.488;13.462;2023-08-08T14:32:56;19.60;99.90
22212;DHT22;11275;52.488;13.462;2023-08-08T14:35:22;19.80;99.90
22212;DHT22;11275;52.488;13.462;2023-08-08T14:37:47;19.80;99.90
22212;DHT22;11275;52.488;13.462;2023-08-08T14:40:13;19.90;99.90
22212;DHT22;11275;52.488;13.462;2023-08-08T14:42:39;20.10;99.90
22212;DHT22;11275;52.488;13.462;2023-08-08T14:45:05;20.20;99.90
22212;DHT22;11275;52.488;13.462;2023-08-08T14:47:31;20.30;99.90
22212;DHT22;11275;52.488;13.462;2023-08-08T14:49:57;20.30;99.90
22212;DHT22;11275;52.488;13.462;2023-08-08T14:52:22;20.50;99.90
22212;DHT22;11275;52.488;13.462;2023-08-08T14:54:48;20.60;99.90
22212;DHT22;11275;52.488;13.462;2023-08-08T14:57:14;20.70;99.90
22212;DHT22;11275;52.488;13.462;2023-08-08T14:59:39;20.80;99.90
22212;DHT22;11275;52.488;13.462;2023-08-08T15:02:05;21.00;99.10
22212;DHT22;11275;52.488;13.462;2023-08-08T15:04:32;21.10;98.40
22212;DHT22;11275;52.488;13.462;2023-08-08T15:06:58;21.10;98.30
22212;DHT22;11275;52.488;13.462;2023-08-08T15:09:24;21.30;98.80
22212;DHT22;11275;52.488;13.462;2023-08-08T15:11:49;21.30;98.90
22212;DHT22;11275;52.488;13.462;2023-08-08T15:14:16;21.30;98.40
22212;DHT22;11275;52.488;13.462;2023-08-08T15:16:41;21.30;97.80